Time;durP1;ratioP1;P1;durP2;ratioP2;P2;SDS_P1;SDS_P2;PMS_P1;PMS_P2;Temp;Humidity;BMP_temperature;BMP_pressure;BME280_temperature;BME280_humidity;BME280_pressure;Samples;Min_cycle;Max_cycle;Signal;HPM_P1;HPM_P2
2022/11/08 00:01:48;;;;;;;4.35;1.45;;;12.60;99.90;;;;;;4997812;28;20240;-92
2022/11/08 00:04:15;;;;;;;6.25;1.63;;;12.60;99.90;;;;;;4997268;28;20246;-85
2022/11/08 00:14:55;;;;;;;5.03;1.10;;;12.60;99.90;;;;;;4998447;28;20653;-85
2022/11/08 00:17:23;;;;;;;3.35;1.30;;;12.60;99.90;;;;;;4998095;28;20183;-84
2022/11/08 00:19:49;;;;;;;6.65;1.52;;;12.60;99.90;;;;;;4998194;28;20525;-87
2022/11/08 00:22:16;;;;;;;7.15;1.60;;;12.60;99.90;;;;;;4997367;28;20215;-93
2022/11/08 00:24:42;;;;;;;6.28;1.40;;;12.60;99.90;;;;;;4998366;28;20218;-91
2022/11/08 00:27:15;;;;;;;8.20;1.80;;;12.60;99.90;;;;;;4998715;28;20175;-93
2022/11/08 00:29:41;;;;;;;8.70;1.50;;;12.60;99.90;;;;;;4997902;28;20227;-94
2022/11/08 00:32:13;;;;;;;6.65;1.50;;;12.60;99.90;;;;;;4998298;28;20176;-88
2022/11/08 00:34:38;;;;;;;5.45;1.45;;;12.60;99.90;;;;;;4999159;28;20246;-94
2022/11/08 00:37:04;;;;;;;6.20;1.50;;;12.50;99.90;;;;;;4999103;28;20573;-89
2022/11/08 00:39:30;;;;;;;7.65;1.52;;;12.50;99.90;;;;;;4998928;28;20540;-92
2022/11/08 00:41:57;;;;;;;2.78;1.05;;;12.50;99.90;;;;;;4997940;28;20176;-92
2022/11/08 00:44:23;;;;;;;6.70;1.50;;;12.50;99.90;;;;;;4997685;28;20239;-93
2022/11/08 00:46:49;;;;;;;7.18;1.52;;;12.60;99.90;;;;;;4997631;28;20184;-90
2022/11/08 00:49:15;;;;;;;4.03;1.48;;;12.60;99.90;;;;;;4998797;28;20262;-92
2022/11/08 00:51:43;;;;;;;4.15;1.33;;;12.60;99.90;;;;;;4998722;28;20198;-92
2022/11/08 00:54:14;;;;;;;5.60;1.45;;;12.60;99.90;;;;;;4998917;28;20164;-91
2022/11/08 00:56:40;;;;;;;8.20;1.55;;;12.60;99.90;;;;;;4998575;28;20176;-95
2022/11/08 00:59:06;;;;;;;5.95;1.63;;;12.50;99.90;;;;;;4997783;28;20615;-93
2022/11/08 01:01:34;;;;;;;6.05;1.50;;;12.40;99.90;;;;;;4998008;28;20745;-88
2022/11/08 01:04:00;;;;;;;4.18;1.27;;;12.40;99.90;;;;;;4996969;28;20302;-92
2022/11/08 01:06:25;;;;;;;8.90;1.45;;;12.30;99.90;;;;;;4997530;28;20307;-92
2022/11/08 01:08:51;;;;;;;5.97;1.15;;;12.30;99.90;;;;;;4998233;28;20626;-92
2022/11/08 01:11:22;;;;;;;5.68;1.52;;;12.30;99.90;;;;;;4997813;28;20533;-89
2022/11/08 01:13:49;;;;;;;8.95;1.48;;;12.20;99.90;;;;;;4997334;28;20180;-86
2022/11/08 01:16:21;;;;;;;8.05;1.52;;;12.20;99.90;;;;;;4997489;28;20199;-91
2022/11/08 01:18:48;;;;;;;6.18;1.55;;;12.20;99.90;;;;;;5004686;28;20187;-91
2022/11/08 01:21:18;;;;;;;5.35;1.60;;;12.20;99.90;;;;;;5017722;28;20254;-90
2022/11/08 01:23:45;;;;;;;4.25;1.55;;;12.10;99.90;;;;;;5016487;28;20203;-93
2022/11/08 01:26:20;;;;;;;3.47;1.45;;;12.00;99.90;;;;;;5016194;28;20207;-93
2022/11/08 01:28:46;;;;;;;3.63;1.42;;;12.00;99.90;;;;;;5017597;28;20174;-90
2022/11/08 01:31:15;;;;;;;7.18;1.75;;;12.10;99.90;;;;;;5016573;28;20175;-94
2022/11/08 01:33:41;;;;;;;5.05;1.50;;;12.00;99.90;;;;;;5017599;28;20206;-90
2022/11/08 01:36:12;;;;;;;3.85;1.45;;;11.90;99.90;;;;;;5017389;28;20178;-91
2022/11/08 01:38:39;;;;;;;6.72;1.42;;;11.90;99.90;;;;;;5016324;28;20178;-85
2022/11/08 01:41:06;;;;;;;6.65;1.90;;;11.80;99.90;;;;;;5016820;28;20175;-90
2022/11/08 01:43:55;;;;;;;8.18;1.60;;;11.80;99.90;;;;;;5015992;28;20579;-90
2022/11/08 01:46:31;;;;;;;8.02;1.92;;;11.70;99.90;;;;;;5016500;28;20546;-89
2022/11/08 01:49:03;;;;;;;3.75;1.35;;;11.80;99.90;;;;;;5006899;28;20633;-90
2022/11/08 01:51:35;;;;;;;5.35;1.67;;;11.80;99.90;;;;;;4997296;28;20498;-92
2022/11/08 01:54:04;;;;;;;6.57;1.30;;;11.80;99.90;;;;;;4995922;28;20262;-91
2022/11/08 01:56:30;;;;;;;8.02;1.77;;;11.80;99.90;;;;;;4995752;28;20180;-91
2022/11/08 01:58:59;;;;;;;7.13;1.65;;;11.80;99.90;;;;;;4995973;28;20176;-93
2022/11/08 02:01:27;;;;;;;4.55;1.60;;;11.70;99.90;;;;;;4997129;28;20168;-87
2022/11/08 02:03:52;;;;;;;6.28;1.63;;;11.70;99.90;;;;;;4995682;28;20593;-87
2022/11/08 02:06:18;;;;;;;8.93;1.77;;;11.70;99.90;;;;;;4995823;28;20231;-88
2022/11/08 02:08:45;;;;;;;6.97;1.98;;;11.70;99.90;;;;;;4995899;28;20266;-94
2022/11/08 02:11:14;;;;;;;3.97;1.80;;;11.70;99.90;;;;;;4995637;28;20184;-84
2022/11/08 02:13:40;;;;;;;9.40;2.05;;;11.80;99.90;;;;;;4995924;28;20191;-87
2022/11/08 02:16:11;;;;;;;5.43;1.90;;;11.70;99.90;;;;;;4996122;28;20274;-88
2022/11/08 02:18:37;;;;;;;8.45;1.80;;;11.80;99.90;;;;;;4995529;28;20223;-85
2022/11/08 02:21:20;;;;;;;6.85;1.83;;;11.80;99.90;;;;;;4995809;28;20206;-89
2022/11/08 02:23:50;;;;;;;5.45;1.65;;;11.70;99.90;;;;;;4994863;28;20294;-86
2022/11/08 02:26:18;;;;;;;9.15;1.98;;;11.70;99.90;;;;;;4995236;28;20264;-86
2022/11/08 02:28:46;;;;;;;3.95;1.55;;;11.70;99.90;;;;;;4995530;28;20584;-86
2022/11/08 02:31:14;;;;;;;4.20;1.58;;;11.70;99.90;;;;;;4995431;28;20214;-86
2022/11/08 02:33:40;;;;;;;7.45;1.45;;;11.60;99.90;;;;;;4995319;28;20180;-86
2022/11/08 02:36:07;;;;;;;6.70;1.90;;;11.60;99.90;;;;;;4996681;28;20173;-88
2022/11/08 02:38:39;;;;;;;10.52;1.65;;;11.50;99.90;;;;;;4995423;28;20615;-89
2022/11/08 02:43:40;;;;;;;9.85;1.90;;;11.60;99.90;;;;;;5037142;23;20254;-90
2022/11/08 02:46:06;;;;;;;9.57;1.63;;;11.60;99.90;;;;;;5015604;28;20555;-92
2022/11/08 02:48:31;;;;;;;4.90;1.80;;;11.60;99.90;;;;;;5015545;28;20186;-91
2022/11/08 02:50:57;;;;;;;4.70;1.33;;;11.60;99.90;;;;;;5014396;28;20214;-88
2022/11/08 02:53:23;;;;;;;5.53;1.65;;;11.60;99.90;;;;;;5014264;28;20175;-90
2022/11/08 02:55:48;;;;;;;8.68;1.75;;;11.50;99.90;;;;;;5015023;28;20185;-93
2022/11/08 02:58:14;;;;;;;9.18;2.00;;;11.40;99.90;;;;;;5013926;28;20226;-88
2022/11/08 03:00:40;;;;;;;4.90;1.40;;;11.50;99.90;;;;;;5014251;28;20564;-90
2022/11/08 03:03:05;;;;;;;4.40;1.60;;;11.50;99.90;;;;;;5014251;28;20230;-91
2022/11/08 03:05:31;;;;;;;9.10;2.58;;;11.50;99.90;;;;;;5015555;28;20606;-89
2022/11/08 03:07:58;;;;;;;6.43;1.77;;;11.50;99.90;;;;;;5015583;28;20171;-90
2022/11/08 03:10:25;;;;;;;6.13;1.73;;;11.50;99.90;;;;;;5015199;28;20171;-91
2022/11/08 03:12:59;;;;;;;8.18;2.10;;;11.50;99.90;;;;;;5022882;28;20212;-90
2022/11/08 03:15:25;;;;;;;7.15;2.20;;;11.50;99.90;;;;;;5033689;28;20178;-91
2022/11/08 03:17:51;;;;;;;7.53;2.25;;;11.40;99.90;;;;;;5033687;28;20183;-91
2022/11/08 03:20:17;;;;;;;9.85;2.85;;;11.40;99.90;;;;;;5033708;28;20166;-91
2022/11/08 03:22:44;;;;;;;7.30;2.53;;;11.40;99.90;;;;;;5033752;28;20216;-90
2022/11/08 03:25:10;;;;;;;7.47;2.15;;;11.30;99.90;;;;;;5017087;28;20671;-90
2022/11/08 03:27:35;;;;;;;8.32;2.10;;;11.30;99.90;;;;;;5033182;28;20170;-91
2022/11/08 03:30:01;;;;;;;6.60;2.53;;;11.20;99.90;;;;;;5033504;28;20189;-91
2022/11/08 03:32:27;;;;;;;3.97;1.60;;;11.10;99.90;;;;;;5033398;28;20237;-91
2022/11/08 03:34:52;;;;;;;6.22;1.50;;;11.10;99.90;;;;;;5033300;28;20174;-90
2022/11/08 03:37:18;;;;;;;5.88;1.60;;;11.00;99.90;;;;;;5033382;28;20536;-90
2022/11/08 03:39:43;;;;;;;5.72;1.90;;;11.00;99.90;;;;;;5033345;28;20183;-90
2022/11/08 03:42:09;;;;;;;6.63;1.48;;;11.00;99.90;;;;;;5028881;28;20235;-94
2022/11/08 03:44:35;;;;;;;9.20;1.73;;;11.00;99.90;;;;;;5013407;28;20187;-90
2022/11/08 03:47:01;;;;;;;3.72;1.58;;;11.00;99.90;;;;;;5013544;28;20171;-90
2022/11/08 03:49:26;;;;;;;7.82;1.70;;;11.00;99.90;;;;;;5013792;28;20187;-90
2022/11/08 03:51:53;;;;;;;8.77;1.63;;;11.00;99.90;;;;;;5013695;28;20206;-91
2022/11/08 03:54:18;;;;;;;3.17;1.30;;;10.90;99.90;;;;;;5014606;28;20167;-90
2022/11/08 03:56:44;;;;;;;5.38;1.40;;;10.90;99.90;;;;;;5013622;28;20309;-91
2022/11/08 03:59:11;;;;;;;6.93;1.45;;;10.90;99.90;;;;;;5013661;28;20179;-90
2022/11/08 04:01:37;;;;;;;7.05;1.50;;;10.80;99.90;;;;;;5013614;28;20186;-91
2022/11/08 04:04:04;;;;;;;4.90;1.08;;;10.80;99.90;;;;;;5013114;28;20203;-92
2022/11/08 04:06:29;;;;;;;5.25;1.40;;;10.70;99.90;;;;;;5013363;28;20186;-91
2022/11/08 04:08:55;;;;;;;7.25;1.50;;;10.70;99.90;;;;;;5013348;28;20175;-92
2022/11/08 04:16:51;;;;;;;5.45;1.25;;;10.70;99.90;;;;;;5034387;28;20181;-90
2022/11/08 04:22:00;;;;;;;5.55;1.52;;;10.60;99.90;;;;;;5034330;28;20165;-92
2022/11/08 04:24:26;;;;;;;6.68;1.50;;;10.60;99.90;;;;;;5034166;28;20190;-91
2022/11/08 04:26:52;;;;;;;4.57;1.00;;;10.60;99.90;;;;;;5034041;28;20167;-90
2022/11/08 04:29:17;;;;;;;4.43;1.13;;;10.60;99.90;;;;;;5033819;28;20182;-93
2022/11/08 04:31:43;;;;;;;5.10;1.20;;;10.50;99.90;;;;;;5033076;28;20178;-90
2022/11/08 04:34:09;;;;;;;3.88;1.13;;;10.50;99.90;;;;;;5032764;28;20212;-91
2022/11/08 04:36:34;;;;;;;2.88;1.20;;;10.50;99.90;;;;;;5032915;28;20217;-91
2022/11/08 04:39:00;;;;;;;5.55;1.20;;;10.50;99.90;;;;;;5033150;28;20182;-92
2022/11/08 04:41:26;;;;;;;6.68;1.45;;;10.50;99.90;;;;;;5033220;28;20178;-94
2022/11/08 04:43:54;;;;;;;12.55;1.60;;;10.50;99.90;;;;;;5032258;28;20293;-91
2022/11/08 04:46:25;;;;;;;4.47;1.10;;;10.40;99.90;;;;;;5033642;28;20261;-90
2022/11/08 04:48:54;;;;;;;5.28;1.27;;;10.40;99.90;;;;;;5036413;28;20206;-91
2022/11/08 04:51:28;;;;;;;4.78;1.25;;;10.40;99.90;;;;;;5036167;28;20201;-92
2022/11/08 04:53:59;;;;;;;5.93;1.50;;;10.50;99.90;;;;;;5036651;28;20495;-92
2022/11/08 04:56:27;;;;;;;5.43;1.17;;;10.50;99.90;;;;;;5036321;28;20178;-91
2022/11/08 04:58:56;;;;;;;5.97;1.65;;;10.50;99.90;;;;;;5035982;28;20222;-92
2022/11/08 05:01:25;;;;;;;8.80;1.50;;;10.50;99.90;;;;;;5036187;28;20221;-94
2022/11/08 05:03:52;;;;;;;4.78;1.30;;;10.50;99.90;;;;;;5036001;28;20241;-91
2022/11/08 05:06:23;;;;;;;8.48;1.60;;;10.40;99.90;;;;;;5036141;28;20171;-92
2022/11/08 05:08:50;;;;;;;8.52;1.33;;;10.40;99.90;;;;;;5037310;28;20178;-92
2022/11/08 05:11:20;;;;;;;5.97;1.52;;;10.30;99.90;;;;;;5035949;28;20265;-90
2022/11/08 05:13:47;;;;;;;4.40;1.25;;;10.30;99.90;;;;;;5019836;28;20191;-92
2022/11/08 05:16:16;;;;;;;4.28;1.40;;;10.30;99.90;;;;;;5016150;28;20630;-91
2022/11/08 05:18:42;;;;;;;6.43;1.60;;;10.30;99.90;;;;;;5016371;28;20180;-91
2022/11/08 05:23:55;;;;;;;4.53;1.30;;;10.20;99.90;;;;;;5017092;28;20218;-91
2022/11/08 05:26:21;;;;;;;4.05;1.30;;;10.20;99.90;;;;;;5015774;28;20610;-89
2022/11/08 05:28:47;;;;;;;7.43;1.90;;;10.20;99.90;;;;;;5015639;28;20206;-92
2022/11/08 05:31:14;;;;;;;1.73;1.13;;;10.20;99.90;;;;;;5015986;28;20181;-91
2022/11/08 05:33:40;;;;;;;7.45;1.85;;;10.20;99.90;;;;;;5015683;28;20179;-92
2022/11/08 05:36:12;;;;;;;5.93;1.40;;;10.20;99.90;;;;;;5015991;28;20263;-91
2022/11/08 05:38:38;;;;;;;3.17;1.33;;;10.10;99.90;;;;;;5015742;28;20187;-91
2022/11/08 05:41:19;;;;;;;5.18;1.85;;;10.10;99.90;;;;;;5015685;28;20179;-91
2022/11/08 05:43:47;;;;;;;3.92;1.50;;;10.10;99.90;;;;;;5032005;28;20234;-92
2022/11/08 05:46:15;;;;;;;5.45;1.80;;;10.10;99.90;;;;;;5035241;28;20213;-93
2022/11/08 05:48:42;;;;;;;6.60;1.50;;;10.10;99.90;;;;;;5036495;28;20159;-91
2022/11/08 05:51:09;;;;;;;5.75;1.88;;;10.00;99.90;;;;;;5035115;28;20189;-90
2022/11/08 05:53:34;;;;;;;4.05;1.45;;;10.00;99.90;;;;;;5036461;28;20692;-92
2022/11/08 05:56:01;;;;;;;4.40;1.67;;;10.00;99.90;;;;;;5035303;28;20174;-91
2022/11/08 05:58:28;;;;;;;6.85;1.45;;;10.00;99.90;;;;;;5033857;28;20179;-91
2022/11/08 06:01:01;;;;;;;4.15;1.58;;;9.90;99.90;;;;;;5035190;28;20179;-90
2022/11/08 06:03:26;;;;;;;5.18;1.20;;;9.90;99.90;;;;;;5035134;28;20218;-92
2022/11/08 06:05:52;;;;;;;7.82;1.90;;;9.90;99.90;;;;;;5035146;28;20632;-92
2022/11/08 06:08:18;;;;;;;8.05;1.75;;;10.00;99.90;;;;;;5034656;28;20221;-91
2022/11/08 06:10:43;;;;;;;4.18;1.50;;;10.00;99.90;;;;;;5034841;28;20586;-92
2022/11/08 06:13:09;;;;;;;3.45;1.33;;;10.00;99.90;;;;;;5022427;28;20187;-92
2022/11/08 06:15:35;;;;;;;3.95;1.42;;;10.00;99.90;;;;;;5015026;28;20258;-92
2022/11/08 06:18:04;;;;;;;4.93;1.50;;;10.00;99.90;;;;;;5014912;28;20183;-92
2022/11/08 06:20:30;;;;;;;4.07;1.50;;;10.00;99.90;;;;;;5014978;28;20598;-91
2022/11/08 06:22:56;;;;;;;5.15;1.45;;;9.90;99.90;;;;;;5014836;28;20222;-92
2022/11/08 06:25:22;;;;;;;4.78;1.40;;;10.00;99.90;;;;;;5014379;28;20233;-91
2022/11/08 06:27:48;;;;;;;5.43;1.55;;;9.90;99.90;;;;;;5014746;28;20186;-92
2022/11/08 06:30:14;;;;;;;3.17;1.42;;;9.90;99.90;;;;;;5014735;28;20179;-91
2022/11/08 06:32:40;;;;;;;4.90;1.70;;;10.00;99.90;;;;;;5015988;28;20528;-92
2022/11/08 06:35:06;;;;;;;4.13;1.50;;;10.00;99.90;;;;;;5014513;28;20180;-90
2022/11/08 06:37:31;;;;;;;5.88;1.73;;;10.00;99.90;;;;;;5014715;28;20176;-92
2022/11/08 06:39:58;;;;;;;5.57;1.80;;;10.00;99.90;;;;;;5014668;28;20194;-91
2022/11/08 06:42:24;;;;;;;4.95;1.63;;;10.00;99.90;;;;;;5014180;28;20241;-92
2022/11/08 06:44:50;;;;;;;5.63;1.60;;;10.00;99.90;;;;;;5014677;28;20265;-91
2022/11/08 06:47:16;;;;;;;4.95;1.70;;;10.00;99.90;;;;;;5014655;28;20260;-92
2022/11/08 06:49:41;;;;;;;4.75;1.75;;;9.90;99.90;;;;;;5014592;28;20179;-90
2022/11/08 06:52:07;;;;;;;4.00;1.63;;;9.90;99.90;;;;;;5014531;28;20194;-91
2022/11/08 06:54:33;;;;;;;7.82;1.70;;;9.90;99.90;;;;;;5015500;28;20689;-91
2022/11/08 06:56:59;;;;;;;11.40;2.15;;;9.90;99.90;;;;;;5033957;28;20197;-91
2022/11/08 06:59:28;;;;;;;5.30;1.80;;;9.90;99.90;;;;;;5034022;28;20174;-90
2022/11/08 07:01:55;;;;;;;3.95;1.95;;;9.90;99.90;;;;;;5033992;28;20209;-91
2022/11/08 07:04:21;;;;;;;5.97;1.50;;;9.90;99.90;;;;;;5033821;28;20210;-91
2022/11/08 07:06:46;;;;;;;5.13;1.60;;;10.00;99.90;;;;;;5034151;28;20182;-91
2022/11/08 07:09:13;;;;;;;5.75;1.77;;;10.00;99.90;;;;;;5033668;28;20183;-92
2022/11/08 07:11:38;;;;;;;9.48;1.98;;;10.00;99.90;;;;;;5033948;28;20338;-90
2022/11/08 07:14:04;;;;;;;3.53;1.23;;;10.10;99.90;;;;;;5033704;28;20636;-91
2022/11/08 07:16:30;;;;;;;7.35;1.70;;;10.20;99.90;;;;;;5033618;28;20182;-91
2022/11/08 07:18:56;;;;;;;4.10;1.60;;;10.30;99.90;;;;;;5033826;28;20174;-90
2022/11/08 07:21:22;;;;;;;4.90;1.70;;;10.30;99.90;;;;;;5033724;28;20257;-91
2022/11/08 07:23:48;;;;;;;5.18;1.60;;;10.30;99.90;;;;;;5033579;28;20210;-90
2022/11/08 07:26:14;;;;;;;6.18;1.80;;;10.40;99.90;;;;;;5020076;28;20587;-91
2022/11/08 07:28:40;;;;;;;6.70;1.40;;;10.50;99.90;;;;;;5013731;28;20520;-90
2022/11/08 07:31:07;;;;;;;3.88;1.42;;;10.50;99.90;;;;;;5013786;28;20179;-92
2022/11/08 07:33:33;;;;;;;5.53;1.50;;;10.50;99.90;;;;;;5013871;28;20218;-91
2022/11/08 07:35:59;;;;;;;7.88;1.50;;;10.50;99.90;;;;;;5013927;28;20182;-91
2022/11/08 07:38:25;;;;;;;3.63;1.55;;;10.50;99.90;;;;;;5013881;28;20625;-89
2022/11/08 07:40:55;;;;;;;5.43;1.60;;;10.50;99.90;;;;;;5013817;28;20261;-91
2022/11/08 07:43:21;;;;;;;5.75;1.58;;;10.60;99.90;;;;;;5013216;28;20238;-93
2022/11/08 07:45:56;;;;;;;4.45;1.60;;;10.60;99.90;;;;;;5013669;28;20175;-90
2022/11/08 07:48:22;;;;;;;3.65;1.35;;;10.70;99.90;;;;;;5013561;28;20174;-91
2022/11/08 07:50:48;;;;;;;5.38;1.65;;;10.70;99.90;;;;;;5013564;28;20598;-90
2022/11/08 07:53:14;;;;;;;9.38;1.58;;;10.80;99.90;;;;;;5013603;28;20190;-92
2022/11/08 07:55:40;;;;;;;5.22;1.60;;;10.80;99.90;;;;;;5013600;28;20278;-93
2022/11/08 07:58:08;;;;;;;8.88;1.63;;;10.90;99.90;;;;;;5013473;28;20271;-91
2022/11/08 08:00:36;;;;;;;4.05;1.40;;;11.00;99.90;;;;;;5013471;28;20183;-91
2022/11/08 08:03:02;;;;;;;5.07;1.60;;;11.10;99.90;;;;;;5013403;28;20213;-91
2022/11/08 08:05:32;;;;;;;3.88;1.50;;;11.20;99.90;;;;;;5013533;28;20187;-94
2022/11/08 08:07:59;;;;;;;2.83;1.17;;;11.30;99.90;;;;;;5013349;28;20167;-89
2022/11/08 08:10:26;;;;;;;6.05;1.85;;;11.40;99.90;;;;;;5013324;28;20614;-90
2022/11/08 08:12:53;;;;;;;3.92;1.50;;;11.40;99.90;;;;;;5013288;28;20194;-92
2022/11/08 08:15:18;;;;;;;6.93;1.50;;;11.50;99.90;;;;;;5013271;28;20185;-92
2022/11/08 08:17:44;;;;;;;2.95;1.30;;;11.60;99.90;;;;;;5013632;28;20266;-91
2022/11/08 08:20:11;;;;;;;6.65;1.35;;;11.70;99.90;;;;;;5013599;28;20525;-92
2022/11/08 08:22:45;;;;;;;4.22;1.58;;;11.90;99.90;;;;;;5016160;28;20280;-93
2022/11/08 08:25:12;;;;;;;6.35;1.23;;;11.90;99.90;;;;;;5017206;28;20523;-92
2022/11/08 08:27:38;;;;;;;3.88;1.13;;;11.80;99.90;;;;;;5016710;28;20172;-91
2022/11/08 08:30:04;;;;;;;4.00;1.15;;;11.90;99.90;;;;;;5016757;28;20237;-91
2022/11/08 08:32:30;;;;;;;9.88;1.33;;;11.90;99.90;;;;;;5017145;28;20245;-92
2022/11/08 08:34:55;;;;;;;6.72;1.30;;;11.90;99.90;;;;;;5016983;28;20533;-91
2022/11/08 08:37:24;;;;;;;4.75;1.65;;;11.80;99.90;;;;;;5016942;28;20184;-90
2022/11/08 08:39:50;;;;;;;3.55;1.08;;;11.90;99.90;;;;;;5016805;28;20172;-92
2022/11/08 08:42:16;;;;;;;3.33;1.27;;;11.90;99.90;;;;;;5016475;28;20239;-92
2022/11/08 08:44:41;;;;;;;5.28;1.15;;;11.90;99.90;;;;;;5016694;28;20553;-91
2022/11/08 08:47:08;;;;;;;7.78;1.38;;;11.90;99.90;;;;;;5017863;28;20179;-92
2022/11/08 08:49:33;;;;;;;5.95;1.17;;;11.90;99.90;;;;;;5017916;28;20186;-90
2022/11/08 08:51:59;;;;;;;6.10;1.20;;;12.00;99.90;;;;;;5016578;28;20179;-93
2022/11/08 08:54:25;;;;;;;3.38;1.05;;;12.10;99.90;;;;;;5016425;28;20186;-90
2022/11/08 08:56:52;;;;;;;3.28;1.25;;;12.30;99.90;;;;;;5016443;28;20515;-91
2022/11/08 08:59:18;;;;;;;2.45;1.20;;;12.40;99.90;;;;;;5016097;28;20179;-89
2022/11/08 09:01:43;;;;;;;2.95;1.00;;;12.40;99.90;;;;;;5016404;28;20194;-91
2022/11/08 09:04:09;;;;;;;4.85;1.38;;;12.60;99.90;;;;;;5016359;28;20266;-89
2022/11/08 09:06:35;;;;;;;2.95;1.20;;;12.70;99.90;;;;;;5016420;28;20175;-90
2022/11/08 09:09:00;;;;;;;6.28;1.30;;;12.90;99.90;;;;;;5016382;28;20190;-90
2022/11/08 09:11:26;;;;;;;3.75;1.02;;;12.90;99.90;;;;;;5016185;28;20190;-90
2022/11/08 09:13:52;;;;;;;2.33;1.08;;;13.10;99.90;;;;;;5015782;28;20210;-90
2022/11/08 09:16:17;;;;;;;4.20;1.10;;;13.30;99.90;;;;;;5016304;28;20625;-90
2022/11/08 09:18:43;;;;;;;3.15;1.02;;;13.40;99.90;;;;;;5017263;28;20618;-89
2022/11/08 09:21:09;;;;;;;4.13;1.08;;;13.50;99.90;;;;;;5016159;28;20684;-89
2022/11/08 09:23:34;;;;;;;2.55;0.90;;;13.50;99.90;;;;;;5016817;28;20234;-87
2022/11/08 09:26:04;;;;;;;7.25;1.17;;;13.60;99.90;;;;;;5016834;28;20672;-89
2022/11/08 09:28:32;;;;;;;4.22;0.95;;;13.60;99.90;;;;;;5015615;28;20175;-90
2022/11/08 09:31:07;;;;;;;3.58;0.98;;;13.70;99.90;;;;;;5015873;28;20180;-89
2022/11/08 09:33:34;;;;;;;3.00;1.08;;;13.70;99.90;;;;;;5015473;28;20198;-89
2022/11/08 09:36:03;;;;;;;2.88;1.10;;;13.70;99.90;;;;;;5016782;28;20598;-88
2022/11/08 09:38:29;;;;;;;5.85;1.00;;;13.70;99.90;;;;;;5015294;28;20184;-91
2022/11/08 09:41:35;;;;;;;3.67;1.08;;;13.80;99.90;;;;;;5015538;28;20183;-89
2022/11/08 09:44:00;;;;;;;5.30;1.05;;;13.80;99.90;;;;;;5016490;28;20638;-90
2022/11/08 09:46:32;;;;;;;3.22;1.00;;;13.90;99.90;;;;;;5015698;28;20210;-89
2022/11/08 09:49:00;;;;;;;2.30;0.82;;;13.90;99.90;;;;;;5015574;28;20176;-89
2022/11/08 09:51:28;;;;;;;6.53;1.30;;;14.00;99.90;;;;;;5016688;28;20175;-87
2022/11/08 09:53:59;;;;;;;3.92;1.10;;;14.10;99.90;;;;;;5015268;28;20225;-90
2022/11/08 09:56:26;;;;;;;4.55;1.20;;;14.30;99.90;;;;;;5030297;28;20284;-88
2022/11/08 09:59:20;;;;;;;3.05;0.88;;;14.40;99.90;;;;;;5034714;28;20664;-88
2022/11/08 10:01:48;;;;;;;3.03;1.13;;;14.40;99.90;;;;;;5024704;28;20238;-87
2022/11/08 10:04:16;;;;;;;5.03;1.20;;;14.40;99.90;;;;;;5011629;28;20231;-89
2022/11/08 10:06:48;;;;;;;7.05;1.55;;;14.40;99.90;;;;;;5011867;28;20176;-90
2022/11/08 10:09:23;;;;;;;5.18;1.38;;;14.40;99.90;;;;;;5011671;28;20215;-89
2022/11/08 10:12:02;;;;;;;3.85;1.25;;;14.40;99.90;;;;;;5011841;28;20179;-89
2022/11/08 10:14:40;;;;;;;4.90;0.93;;;14.40;99.90;;;;;;5011641;28;20275;-89
2022/11/08 10:17:30;;;;;;;3.67;1.10;;;14.40;99.90;;;;;;4996452;28;20168;-90
2022/11/08 10:20:23;;;;;;;6.40;1.17;;;14.50;99.90;;;;;;4996327;28;20152;-88
2022/11/08 10:22:58;;;;;;;3.28;1.27;;;14.50;99.90;;;;;;4996372;28;20199;-90
2022/11/08 10:25:25;;;;;;;3.95;0.90;;;14.60;99.90;;;;;;5025218;28;20743;-89
2022/11/08 10:28:28;;;;;;;3.30;1.33;;;14.60;99.90;;;;;;5035854;28;20218;-89
2022/11/08 10:30:55;;;;;;;3.42;1.27;;;14.60;99.90;;;;;;5034581;28;20618;-91
2022/11/08 10:33:34;;;;;;;3.33;1.00;;;14.60;99.90;;;;;;5022341;28;20188;-89
2022/11/08 10:36:09;;;;;;;1.88;0.90;;;14.60;99.90;;;;;;5010391;28;20195;-90
2022/11/08 10:39:03;;;;;;;2.35;0.80;;;14.50;99.90;;;;;;5014609;28;20525;-89
2022/11/08 10:42:02;;;;;;;5.15;1.00;;;14.50;99.90;;;;;;5014776;28;20187;-89
2022/11/08 10:44:28;;;;;;;4.70;1.00;;;14.70;99.90;;;;;;5013569;28;20223;-88
2022/11/08 10:46:56;;;;;;;6.82;1.42;;;14.80;99.90;;;;;;5015931;28;20617;-89
2022/11/08 10:49:32;;;;;;;6.22;1.15;;;14.90;99.90;;;;;;5014297;28;20663;-89
2022/11/08 10:52:19;;;;;;;3.83;0.90;;;15.00;99.90;;;;;;5014398;28;20249;-88
2022/11/08 10:54:49;;;;;;;2.15;0.70;;;15.10;99.90;;;;;;5013368;28;20193;-89
2022/11/08 10:57:41;;;;;;;3.35;0.80;;;15.10;99.90;;;;;;5014180;28;20167;-89
2022/11/08 11:00:30;;;;;;;2.45;0.82;;;15.30;99.90;;;;;;5014136;28;20183;-88
2022/11/08 11:03:05;;;;;;;3.85;0.90;;;15.30;99.90;;;;;;5013948;28;20650;-90
2022/11/08 11:05:36;;;;;;;3.83;0.70;;;15.40;99.90;;;;;;5014134;28;20177;-90
2022/11/08 11:08:07;;;;;;;3.97;0.90;;;15.60;99.90;;;;;;5014329;28;20182;-90
2022/11/08 11:10:45;;;;;;;2.63;0.65;;;15.60;99.90;;;;;;5014252;28;20172;-89
2022/11/08 11:13:17;;;;;;;3.17;0.85;;;15.60;99.90;;;;;;5013934;28;20194;-90
2022/11/08 11:15:54;;;;;;;1.38;0.73;;;15.70;99.90;;;;;;5015313;28;20179;-91
2022/11/08 11:18:47;;;;;;;2.83;0.90;;;15.60;99.90;;;;;;5015011;28;20163;-90
2022/11/08 11:21:23;;;;;;;2.50;0.80;;;15.60;99.90;;;;;;5013863;28;20221;-88
2022/11/08 11:23:51;;;;;;;4.18;0.70;;;15.70;99.90;;;;;;5013658;28;20622;-89
2022/11/08 11:26:33;;;;;;;2.22;0.63;;;15.80;99.90;;;;;;5013614;28;20187;-89
2022/11/08 11:29:05;;;;;;;2.90;0.90;;;15.80;99.90;;;;;;5013456;28;20211;-93
2022/11/08 11:31:33;;;;;;;3.60;0.60;;;15.90;99.90;;;;;;5013789;28;20187;-90
2022/11/08 11:34:21;;;;;;;2.55;0.80;;;15.90;99.90;;;;;;5013738;28;20187;-90
2022/11/08 11:37:17;;;;;;;4.05;0.70;;;15.80;99.90;;;;;;4993379;28;20691;-89
2022/11/08 11:39:48;;;;;;;4.25;0.90;;;15.80;99.90;;;;;;5013657;28;20233;-88
2022/11/08 11:42:36;;;;;;;2.97;0.90;;;15.80;99.90;;;;;;5013456;28;20245;-89
2022/11/08 11:45:26;;;;;;;4.43;0.70;;;15.90;99.90;;;;;;5014327;28;20171;-90
2022/11/08 11:47:55;;;;;;;6.47;0.98;;;15.90;99.90;;;;;;5013620;28;20171;-90
2022/11/08 11:50:44;;;;;;;4.70;0.98;;;15.90;99.90;;;;;;5013734;28;20207;-89
2022/11/08 11:53:35;;;;;;;1.38;0.80;;;15.90;99.90;;;;;;5013523;28;20237;-87
2022/11/08 11:56:19;;;;;;;4.60;1.30;;;15.90;99.90;;;;;;5016578;28;20179;-88
2022/11/08 11:58:59;;;;;;;1.30;0.73;;;15.90;99.90;;;;;;5018613;28;20196;-90
2022/11/08 12:01:28;;;;;;;3.05;1.02;;;15.90;99.90;;;;;;5018538;28;20186;-88
2022/11/08 12:04:31;;;;;;;2.22;0.80;;;15.90;99.90;;;;;;5018725;28;20629;-87
2022/11/08 12:07:04;;;;;;;2.08;0.73;;;15.90;99.90;;;;;;5017273;28;20266;-87
2022/11/08 12:09:54;;;;;;;5.47;0.70;;;16.00;99.90;;;;;;5016698;28;20187;-87
2022/11/08 12:12:30;;;;;;;3.97;1.10;;;16.00;99.90;;;;;;5017286;28;20175;-87
2022/11/08 12:15:22;;;;;;;1.42;0.70;;;16.10;99.90;;;;;;5017038;28;20183;-90
2022/11/08 12:18:15;;;;;;;2.35;1.00;;;16.20;99.90;;;;;;5017151;28;20277;-90
2022/11/08 12:21:05;;;;;;;1.92;0.95;;;16.30;99.90;;;;;;5033589;28;20181;-91
2022/11/08 12:24:19;;;;;;;2.15;0.73;;;16.40;99.90;;;;;;5029111;28;20223;-88
2022/11/08 12:27:09;;;;;;;4.03;1.10;;;16.50;99.90;;;;;;5023864;28;20190;-89
2022/11/08 12:30:10;;;;;;;2.28;0.90;;;16.50;99.90;;;;;;5037732;28;20624;-89
2022/11/08 12:33:11;;;;;;;1.70;0.70;;;16.50;99.90;;;;;;4995478;28;20192;-89
2022/11/08 12:35:57;;;;;;;4.53;1.35;;;16.50;99.90;;;;;;5013644;28;20284;-88
2022/11/08 12:38:51;;;;;;;4.65;1.25;;;16.50;99.90;;;;;;5036576;28;20175;-91
2022/11/08 12:41:33;;;;;;;4.00;0.98;;;16.50;99.90;;;;;;5008905;28;20189;-89
2022/11/08 12:44:18;;;;;;;1.95;0.90;;;16.50;99.90;;;;;;5035978;28;20249;-91
2022/11/08 12:46:57;;;;;;;2.28;0.57;;;16.50;99.90;;;;;;5036687;28;20178;-91
2022/11/08 12:49:36;;;;;;;2.47;1.10;;;16.40;99.90;;;;;;5029793;28;20186;-87
2022/11/08 12:52:29;;;;;;;2.10;0.80;;;16.30;99.90;;;;;;5016795;28;20598;-90
2022/11/08 12:55:01;;;;;;;2.50;0.75;;;16.30;99.90;;;;;;5016611;28;20194;-92
2022/11/08 12:57:30;;;;;;;2.88;1.20;;;16.20;99.90;;;;;;5016663;28;20186;-93
2022/11/08 13:00:13;;;;;;;2.15;0.73;;;16.20;99.90;;;;;;5016259;28;20691;-90
2022/11/08 13:02:40;;;;;;;1.45;0.60;;;16.20;99.90;;;;;;5016410;28;20261;-90
2022/11/08 13:05:17;;;;;;;3.25;0.80;;;16.30;99.90;;;;;;5016185;28;20203;-90
2022/11/08 13:08:10;;;;;;;3.30;0.65;;;16.30;99.90;;;;;;5015597;28;20233;-90
2022/11/08 13:10:48;;;;;;;2.95;0.82;;;16.30;99.90;;;;;;5016080;28;20179;-90
2022/11/08 13:13:44;;;;;;;2.50;0.88;;;16.30;99.90;;;;;;5016188;28;20182;-88
2022/11/08 13:16:15;;;;;;;2.55;0.77;;;16.20;99.90;;;;;;5016059;28;20176;-89
2022/11/08 13:18:52;;;;;;;1.10;0.57;;;16.30;99.90;;;;;;5016024;28;20682;-88
2022/11/08 13:21:27;;;;;;;1.10;0.80;;;16.20;99.90;;;;;;5016052;28;20524;-88
2022/11/08 13:24:13;;;;;;;4.70;0.80;;;16.20;99.90;;;;;;5015792;28;20725;-87
2022/11/08 13:26:43;;;;;;;3.75;1.00;;;16.10;99.90;;;;;;5015301;28;20186;-87
2022/11/08 13:29:14;;;;;;;1.40;0.52;;;16.10;99.90;;;;;;5015683;28;20209;-88